New London, New Hampshire
Current Conditions -  °F | °C
As of 6:53 AM on Friday 19 Dec 2014 (Local Time) from KLEB Reporting Station
Overcast Overcast  
Wind Chill: 21°   Ceiling: 1700
Heat Index: 29°   Visibility: 10mi
Dew Point: 22°   Wind: 8mph
Humidity: 75%   Direction: 360°N
Pressure: 29.93"   Gusts: NA
Location:  43.41°N, 71.99°W
Report Text: KLEB 191153Z 36007KT 10SM OVC017 M02/M06 A2993 RMK AO2 SLP143 T10171056 11006 21017 53014
Loading
Personal Weather Stations






























Interactive Weather Map New forecast layout! Learn more

10-Day Weather Forecast

Advertisements
Track Severe Weather on mobile